createdAt,value
2018-02-22T00:02:25.396Z,21.83
2018-02-22T00:04:53.423Z,27.60
2018-02-22T00:07:21.452Z,27.58
2018-02-22T00:09:49.500Z,24.00
2018-02-22T00:12:17.519Z,28.50
2018-02-22T00:14:45.543Z,27.02
2018-02-22T00:17:18.064Z,27.35
2018-02-22T00:19:51.035Z,28.10
2018-02-22T00:22:19.060Z,31.35
2018-02-22T00:24:51.587Z,23.77
2018-02-22T00:27:20.507Z,30.02
2018-02-22T00:29:49.302Z,26.52
2018-02-22T00:32:18.091Z,22.58
2018-02-22T00:34:46.126Z,26.02
2018-02-22T00:37:14.931Z,27.75
2018-02-22T00:39:42.975Z,27.55
2018-02-22T00:42:13.054Z,29.23
2018-02-22T00:44:41.823Z,28.15
2018-02-22T00:47:15.930Z,21.80
2018-02-22T00:49:44.719Z,29.85
2018-02-22T00:52:13.522Z,28.23
2018-02-22T00:54:42.308Z,34.72
2018-02-22T00:57:10.362Z,34.30
2018-02-22T00:59:39.155Z,29.95
2018-02-22T01:02:08.847Z,30.45
2018-02-22T01:04:40.295Z,31.60
2018-02-22T01:07:08.322Z,30.85
2018-02-22T01:09:38.291Z,31.30
2018-02-22T01:12:06.311Z,31.02
2018-02-22T01:14:34.319Z,32.88
2018-02-22T01:17:02.366Z,27.83
2018-02-22T01:19:30.394Z,39.30
2018-02-22T01:21:58.459Z,31.70
2018-02-22T01:24:29.302Z,37.33
2018-02-22T01:27:01.939Z,48.70
2018-02-22T01:29:29.966Z,31.92
2018-02-22T01:31:58.894Z,39.05
2018-02-22T01:34:26.934Z,32.47
2018-02-22T01:36:55.946Z,29.87
2018-02-22T01:39:23.987Z,36.72
2018-02-22T01:41:53.762Z,33.33
2018-02-22T01:44:23.541Z,27.27
2018-02-22T01:46:51.587Z,34.33
2018-02-22T01:49:19.622Z,41.70
2018-02-22T01:51:48.607Z,30.37
2018-02-22T01:54:18.454Z,24.17
2018-02-22T01:56:47.391Z,36.60
2018-02-22T01:59:20.158Z,37.53
2018-02-22T02:01:48.191Z,34.17
2018-02-22T02:04:17.142Z,42.60
2018-02-22T02:06:45.178Z,36.35
2018-02-22T02:09:18.863Z,38.90
2018-02-22T02:11:47.783Z,41.53
2018-02-22T02:14:17.723Z,43.33
2018-02-22T02:16:46.518Z,42.33
2018-02-22T02:19:16.203Z,32.83
2018-02-22T02:21:44.286Z,28.40
2018-02-22T02:24:12.298Z,37.70
2018-02-22T02:26:40.346Z,32.80
2018-02-22T02:29:08.410Z,39.05
2018-02-22T02:31:40.230Z,29.17
2018-02-22T02:34:08.298Z,36.05
2018-02-22T02:36:37.223Z,35.03
2018-02-22T02:39:07.992Z,43.55
2018-02-22T02:41:41.942Z,34.30
2018-02-22T02:44:09.995Z,38.35
2018-02-22T02:46:38.031Z,37.25
2018-02-22T02:49:10.558Z,33.00
2018-02-22T02:51:48.462Z,36.05
2018-02-22T02:54:16.485Z,39.33
2018-02-22T02:56:45.415Z,36.42
2018-02-22T02:59:14.414Z,39.35
2018-02-22T03:01:56.404Z,37.83
2018-02-22T03:04:26.436Z,37.67
2018-02-22T03:06:55.243Z,32.97
2018-02-22T03:09:29.734Z,28.95
2018-02-22T03:11:59.754Z,46.83
2018-02-22T03:14:31.402Z,38.25
2018-02-22T03:16:59.442Z,30.58
2018-02-22T03:19:29.386Z,38.35
2018-02-22T03:21:59.410Z,28.60
2018-02-22T03:24:27.430Z,33.92
2018-02-22T03:27:01.791Z,37.28
2018-02-22T03:29:34.474Z,34.28
2018-02-22T03:32:03.470Z,36.90
2018-02-22T03:34:35.213Z,38.33
2018-02-22T03:37:04.219Z,39.47
2018-02-22T03:39:32.238Z,36.33
2018-02-22T03:42:01.023Z,31.70
2018-02-22T03:44:30.770Z,33.85
2018-02-22T03:47:04.090Z,37.30
2018-02-22T03:49:36.026Z,37.75
2018-02-22T03:52:05.023Z,39.95
2018-02-22T03:54:33.506Z,32.58
2018-02-22T03:57:05.474Z,39.75
2018-02-22T03:59:37.531Z,33.70
2018-02-22T04:02:11.274Z,30.88
2018-02-22T04:04:41.197Z,43.33
2018-02-22T04:07:09.214Z,41.13
2018-02-22T04:09:37.234Z,43.22
2018-02-22T04:12:06.154Z,34.72
2018-02-22T04:14:35.081Z,39.50
2018-02-22T04:17:04.051Z,41.37
2018-02-22T04:19:33.038Z,40.35
2018-02-22T04:22:07.042Z,34.65
2018-02-22T04:24:36.054Z,45.20
2018-02-22T04:27:09.886Z,42.17
2018-02-22T04:29:38.697Z,40.95
2018-02-22T04:32:10.554Z,38.08
2018-02-22T04:34:39.430Z,38.92
2018-02-22T04:37:08.206Z,43.90
2018-02-22T04:39:46.726Z,36.47
2018-02-22T04:42:18.542Z,45.20
2018-02-22T04:44:48.574Z,41.22
2018-02-22T04:47:17.554Z,26.10
2018-02-22T04:49:55.442Z,28.35
2018-02-22T04:52:23.454Z,25.00
2018-02-22T04:54:52.270Z,37.15
2018-02-22T04:57:20.298Z,30.58
2018-02-22T04:59:48.318Z,31.73
2018-02-22T05:02:19.303Z,42.72
2018-02-22T05:04:47.462Z,31.27
2018-02-22T05:07:15.506Z,27.92
2018-02-22T05:09:44.526Z,40.65
2018-02-22T05:12:15.606Z,32.50
2018-02-22T05:14:44.390Z,29.92
2018-02-22T05:17:15.118Z,35.38
2018-02-22T05:19:50.806Z,33.53
2018-02-22T05:22:18.846Z,31.45
2018-02-22T05:24:50.977Z,37.58
2018-02-22T05:27:19.006Z,35.40
2018-02-22T05:29:47.038Z,38.85
2018-02-22T05:32:17.747Z,39.13
2018-02-22T05:34:58.649Z,34.53
2018-02-22T05:37:27.461Z,26.25
2018-02-22T05:39:57.426Z,33.17
2018-02-22T05:42:26.440Z,40.65
2018-02-22T05:44:55.418Z,34.15
2018-02-22T05:47:23.454Z,36.80
2018-02-22T05:49:59.210Z,33.63
2018-02-22T05:52:30.630Z,38.13
2018-02-22T05:54:59.546Z,27.05
2018-02-22T05:57:27.598Z,15.90
2018-02-22T06:00:03.470Z,28.35
2018-02-22T06:02:37.590Z,37.95
2018-02-22T06:05:09.933Z,34.85
2018-02-22T06:07:42.563Z,29.10
2018-02-22T06:10:10.586Z,42.10
2018-02-22T06:12:45.146Z,31.17
2018-02-22T06:15:13.174Z,26.17
2018-02-22T06:17:45.886Z,22.20
2018-02-22T06:20:13.910Z,22.13
2018-02-22T06:22:41.942Z,18.17
2018-02-22T06:25:16.530Z,34.58
2018-02-22T06:27:47.893Z,25.42
2018-02-22T06:30:16.898Z,26.70
2018-02-22T06:32:44.953Z,29.37
2018-02-22T06:35:14.873Z,30.85
2018-02-22T06:37:48.409Z,30.75
2018-02-22T06:40:19.086Z,34.70
2018-02-22T06:42:48.105Z,32.30
2018-02-22T06:45:17.106Z,27.92
2018-02-22T06:47:50.307Z,32.05
2018-02-22T06:50:19.386Z,35.45
2018-02-22T06:52:59.805Z,34.53
2018-02-22T06:55:32.214Z,39.45
2018-02-22T06:58:00.259Z,30.00
2018-02-22T07:00:34.374Z,24.95
2018-02-22T07:03:02.414Z,20.98
2018-02-22T07:05:36.482Z,23.20
2018-02-22T07:08:06.526Z,29.95
2018-02-22T07:10:36.294Z,29.63
2018-02-22T07:13:11.018Z,28.55
2018-02-22T07:15:42.486Z,35.25
2018-02-22T07:18:18.121Z,32.55
2018-02-22T07:20:46.133Z,28.52
2018-02-22T07:23:17.075Z,33.92
2018-02-22T07:25:44.852Z,37.97
2018-02-22T07:28:13.787Z,35.72
2018-02-22T07:30:42.810Z,37.70
2018-02-22T07:33:13.513Z,40.17
2018-02-22T07:35:43.465Z,30.85
2018-02-22T07:38:13.229Z,39.70
2018-02-22T07:40:42.217Z,31.00
2018-02-22T07:43:10.279Z,36.35
2018-02-22T07:45:38.265Z,35.63
2018-02-22T07:48:07.261Z,27.55
2018-02-22T07:50:39.527Z,32.20
2018-02-22T07:53:10.585Z,31.75
2018-02-22T07:55:39.553Z,25.35
2018-02-22T07:58:17.662Z,32.33
2018-02-22T08:00:46.647Z,29.15
2018-02-22T08:03:18.730Z,35.17
2018-02-22T08:06:07.029Z,33.05
2018-02-22T08:08:35.057Z,28.50
2018-02-22T08:11:04.052Z,28.00
2018-02-22T08:13:35.693Z,32.05
2018-02-22T08:16:04.281Z,29.92
2018-02-22T08:18:32.306Z,26.80
2018-02-22T08:21:01.225Z,31.00
2018-02-22T08:23:29.237Z,30.12
2018-02-22T08:25:59.921Z,31.55
2018-02-22T08:28:27.937Z,26.23
2018-02-22T08:30:57.702Z,35.05
2018-02-22T08:33:25.709Z,29.25
2018-02-22T08:35:53.725Z,30.83
2018-02-22T08:38:45.441Z,32.17
2018-02-22T08:41:17.773Z,32.08
2018-02-22T08:43:48.477Z,27.08
2018-02-22T08:46:17.452Z,26.60
2018-02-22T08:49:04.073Z,21.92
2018-02-22T08:51:32.976Z,24.08
2018-02-22T08:54:01.954Z,28.10
2018-02-22T08:56:29.977Z,22.20
2018-02-22T08:58:59.892Z,28.25
2018-02-22T09:01:31.461Z,26.27
2018-02-22T09:04:00.473Z,28.85
2018-02-22T09:06:34.185Z,28.00
2018-02-22T09:09:04.106Z,23.42
2018-02-22T09:11:32.117Z,18.70
2018-02-22T09:14:00.124Z,30.02
2018-02-22T09:16:29.157Z,24.55
2018-02-22T09:18:58.932Z,25.10
2018-02-22T09:21:28.777Z,22.52
2018-02-22T09:24:03.029Z,26.75
2018-02-22T09:26:37.320Z,21.45
2018-02-22T09:29:09.134Z,26.75
2018-02-22T09:31:38.124Z,23.48
2018-02-22T09:34:09.197Z,23.20
2018-02-22T09:36:38.945Z,17.23
2018-02-22T09:39:07.688Z,21.20
2018-02-22T09:41:39.317Z,29.87
2018-02-22T09:44:12.988Z,20.65
2018-02-22T09:46:41.009Z,20.45
2018-02-22T09:49:09.057Z,23.77
2018-02-22T09:51:37.074Z,22.02
2018-02-22T09:54:07.780Z,20.05
2018-02-22T09:56:35.789Z,22.00
2018-02-22T09:59:03.796Z,25.02
2018-02-22T10:01:31.812Z,18.95
2018-02-22T10:04:00.592Z,21.80
2018-02-22T10:06:32.410Z,23.62
2018-02-22T10:09:00.458Z,20.40
2018-02-22T10:11:28.464Z,26.98
2018-02-22T10:13:58.484Z,24.10
2018-02-22T10:16:26.494Z,24.65
2018-02-22T10:18:54.514Z,22.02
2018-02-22T10:21:22.528Z,20.40
2018-02-22T10:23:52.200Z,20.12
2018-02-22T10:26:20.220Z,14.77
2018-02-22T10:28:49.977Z,20.80
2018-02-22T10:31:17.984Z,30.65
2018-02-22T10:33:49.996Z,18.15
2018-02-22T10:36:18.009Z,18.05
2018-02-22T10:38:48.669Z,14.68
2018-02-22T10:41:18.840Z,19.33
2018-02-22T10:44:00.756Z,17.00
2018-02-22T10:46:31.472Z,22.65
2018-02-22T10:48:59.480Z,17.73
2018-02-22T10:51:28.880Z,15.48
2018-02-22T10:53:56.893Z,15.05
2018-02-22T10:56:26.524Z,18.98
2018-02-22T10:58:57.952Z,14.70
2018-02-22T11:01:31.792Z,14.77
2018-02-22T11:04:01.585Z,15.27
2018-02-22T11:06:30.496Z,15.77
2018-02-22T11:09:01.433Z,15.50
2018-02-22T11:11:35.152Z,16.35
2018-02-22T11:14:04.144Z,14.60
2018-02-22T11:16:32.172Z,16.05
2018-02-22T11:19:00.216Z,16.37
2018-02-22T11:21:30.168Z,15.38
2018-02-22T11:24:01.208Z,17.90
2018-02-22T11:26:33.040Z,16.40
2018-02-22T11:29:02.001Z,15.70
2018-02-22T11:31:31.904Z,12.37
2018-02-22T11:34:04.636Z,20.67
2018-02-22T11:36:34.112Z,14.68
2018-02-22T11:39:02.128Z,13.98
2018-02-22T11:41:34.460Z,18.45
2018-02-22T11:44:02.503Z,18.20
2018-02-22T11:46:30.528Z,16.65
2018-02-22T11:49:04.224Z,14.18
2018-02-22T11:51:38.624Z,13.38
2018-02-22T11:54:07.557Z,15.43
2018-02-22T11:56:38.556Z,16.73
2018-02-22T11:59:06.592Z,18.30
2018-02-22T12:01:35.532Z,18.55
2018-02-22T12:04:03.556Z,21.30
2018-02-22T12:06:31.575Z,15.95
2018-02-22T12:09:05.312Z,11.80
2018-02-22T12:11:35.008Z,14.18
2018-02-22T12:14:03.976Z,15.82
2018-02-22T12:16:34.696Z,17.45
2018-02-22T12:19:03.630Z,13.52
2018-02-22T12:21:32.423Z,14.55
2018-02-22T12:24:01.203Z,14.98
2018-02-22T12:26:31.911Z,16.98
2018-02-22T12:29:01.276Z,13.15
2018-02-22T12:31:31.235Z,17.17
2018-02-22T12:34:01.239Z,15.55
2018-02-22T12:36:35.067Z,19.50
2018-02-22T12:39:04.020Z,13.82
2018-02-22T12:41:33.952Z,15.45
2018-02-22T12:44:03.964Z,13.15
2018-02-22T12:46:32.004Z,14.48
2018-02-22T12:49:00.012Z,19.00
2018-02-22T12:51:32.491Z,18.98
2018-02-22T12:54:00.755Z,14.07
2018-02-22T12:56:28.779Z,18.85
2018-02-22T12:58:58.363Z,17.92
2018-02-22T13:01:32.696Z,17.98
2018-02-22T13:04:00.712Z,14.75
2018-02-22T13:06:28.740Z,15.85
2018-02-22T13:08:57.651Z,14.75
2018-02-22T13:11:42.131Z,16.70
2018-02-22T13:14:10.152Z,20.75
2018-02-22T13:16:43.822Z,16.87
2018-02-22T13:19:11.852Z,18.05
2018-02-22T13:21:41.779Z,15.13
2018-02-22T13:24:09.804Z,15.65
2018-02-22T13:26:42.816Z,14.25
2018-02-22T13:29:10.839Z,17.83
2018-02-22T13:31:40.633Z,13.20
2018-02-22T13:34:20.572Z,13.05
2018-02-22T13:36:51.411Z,12.77
2018-02-22T13:39:19.444Z,19.75
2018-02-22T13:41:48.383Z,19.42
2018-02-22T13:44:28.148Z,17.92
2018-02-22T13:46:57.944Z,23.55
2018-02-22T13:52:28.923Z,12.70
2018-02-22T13:54:58.903Z,13.40
2018-02-22T13:57:30.464Z,17.35
2018-02-22T13:59:59.443Z,13.65
2018-02-22T14:02:31.099Z,12.68
2018-02-22T14:05:00.099Z,13.55
2018-02-22T14:07:33.891Z,12.75
2018-02-22T14:10:04.839Z,16.02
2018-02-22T14:12:33.827Z,11.25
2018-02-22T14:15:03.740Z,13.43
2018-02-22T14:17:33.752Z,14.05
2018-02-22T14:22:58.383Z,11.77
2018-02-22T14:25:30.115Z,12.90
2018-02-22T14:27:58.143Z,11.80
2018-02-22T14:30:26.147Z,8.93
2018-02-22T14:32:58.395Z,13.60
2018-02-22T14:35:26.415Z,12.13
2018-02-22T14:37:55.443Z,14.80
2018-02-22T14:40:23.443Z,12.13
2018-02-22T14:42:53.371Z,14.70
2018-02-22T14:48:16.499Z,10.13
2018-02-22T14:50:44.523Z,19.70
2018-02-22T14:53:15.975Z,13.40
2018-02-22T14:55:44.971Z,15.85
2018-02-22T14:58:17.439Z,10.32
2018-02-22T15:00:51.972Z,17.25
2018-02-22T15:03:21.927Z,11.90
2018-02-22T15:05:49.951Z,17.77
2018-02-22T15:08:17.959Z,12.20
2018-02-22T15:10:46.903Z,19.90
2018-02-22T15:13:15.884Z,12.90
2018-02-22T15:15:44.871Z,11.32
2018-02-22T15:18:14.787Z,15.50
2018-02-22T15:20:48.546Z,9.40
2018-02-22T15:23:16.496Z,9.27
2018-02-22T15:25:45.455Z,11.20
2018-02-22T15:28:15.467Z,12.43
2018-02-22T15:30:44.219Z,15.75
2018-02-22T15:33:12.222Z,13.95
2018-02-22T15:35:41.123Z,11.88
2018-02-22T15:38:09.120Z,17.50
2018-02-22T15:40:38.899Z,12.65
2018-02-22T15:43:06.899Z,13.90
2018-02-22T15:45:37.575Z,13.50
2018-02-22T15:48:05.591Z,14.80
2018-02-22T15:50:37.216Z,9.65
2018-02-22T15:53:05.235Z,27.15
2018-02-22T15:55:34.914Z,14.45
2018-02-22T15:58:02.911Z,11.88
2018-02-22T16:00:32.590Z,11.73
2018-02-22T16:03:00.627Z,17.10
2018-02-22T16:05:28.631Z,12.07
2018-02-22T16:08:00.088Z,9.50
2018-02-22T16:10:28.983Z,10.65
2018-02-22T16:12:58.975Z,11.12
2018-02-22T16:15:32.355Z,15.05
2018-02-22T16:18:11.979Z,18.83
2018-02-22T16:20:39.995Z,10.90
2018-02-22T16:23:08.971Z,12.37
2018-02-22T16:25:36.999Z,10.48
2018-02-22T16:28:05.003Z,9.23
2018-02-22T16:30:33.023Z,11.52
2018-02-22T16:33:02.718Z,13.65
2018-02-22T16:35:31.507Z,9.10
2018-02-22T16:37:59.527Z,13.57
2018-02-22T16:40:27.585Z,11.77
2018-02-22T16:42:55.551Z,15.63
2018-02-22T16:45:24.483Z,15.23
2018-02-22T16:47:54.987Z,13.18
2018-02-22T16:50:27.487Z,15.18
2018-02-22T16:52:55.499Z,9.80
2018-02-22T16:55:23.511Z,12.63
2018-02-22T16:57:55.172Z,12.07
2018-02-22T17:00:23.179Z,13.43
2018-02-22T17:05:48.250Z,11.40
2018-02-22T17:08:18.162Z,12.30
2018-02-22T17:10:46.171Z,9.98
2018-02-22T17:13:22.486Z,14.80
2018-02-22T17:15:51.490Z,7.95
2018-02-22T17:18:24.192Z,12.37
2018-02-22T17:20:52.223Z,13.73
2018-02-22T17:23:29.478Z,11.25
2018-02-22T17:26:03.882Z,12.93
2018-02-22T17:28:40.708Z,11.68
2018-02-22T17:31:16.383Z,9.82
2018-02-22T17:33:45.371Z,9.13
2018-02-22T17:36:18.003Z,10.07
2018-02-22T17:38:52.523Z,9.02
2018-02-22T17:44:15.347Z,9.27
2018-02-22T17:46:49.982Z,12.63
2018-02-22T17:49:23.755Z,9.88
2018-02-22T17:51:53.781Z,9.98
2018-02-22T17:54:22.758Z,13.18
2018-02-22T17:56:54.134Z,11.57
2018-02-22T17:59:26.095Z,12.55
2018-02-22T18:02:13.139Z,15.30
2018-02-22T18:04:47.334Z,10.43
2018-02-22T18:07:15.347Z,11.40
2018-02-22T18:09:43.370Z,7.55
2018-02-22T18:12:14.919Z,10.52
2018-02-22T18:15:03.619Z,10.48
2018-02-22T18:17:36.346Z,9.20
2018-02-22T18:20:04.367Z,9.15
2018-02-22T18:22:50.610Z,10.45
2018-02-22T18:25:18.631Z,8.90
2018-02-22T18:27:59.267Z,13.00
2018-02-22T18:30:30.005Z,10.80
2018-02-22T18:33:00.811Z,12.40
2018-02-22T18:38:22.825Z,12.02
2018-02-22T18:40:57.498Z,9.82
2018-02-22T18:43:31.366Z,11.48
2018-02-22T18:46:03.994Z,9.25
2018-02-22T18:48:44.599Z,10.48
2018-02-22T18:51:14.531Z,11.25
2018-02-22T18:53:42.566Z,7.57
2018-02-22T18:56:15.554Z,9.40
2018-02-22T18:58:44.495Z,10.65
2018-02-22T19:01:16.174Z,15.13
2018-02-22T19:03:48.226Z,10.05
2018-02-22T19:06:23.050Z,11.68
2018-02-22T19:08:51.062Z,10.27
2018-02-22T19:11:19.998Z,11.38
2018-02-22T19:13:49.426Z,7.28
2018-02-22T19:16:22.255Z,13.82
2018-02-22T19:18:52.190Z,7.60
2018-02-22T19:21:23.806Z,9.30
2018-02-22T19:23:53.486Z,12.15
2018-02-22T19:26:24.183Z,10.38
2018-02-22T19:28:52.190Z,7.03
2018-02-22T19:31:20.969Z,9.23
2018-02-22T19:33:50.866Z,9.57
2018-02-22T19:36:21.113Z,8.45
2018-02-22T19:38:51.849Z,10.35
2018-02-22T19:41:20.646Z,9.15
2018-02-22T19:43:50.410Z,13.07
2018-02-22T19:46:19.405Z,11.63
2018-02-22T19:48:47.418Z,9.68
2018-02-22T19:51:16.390Z,8.57
2018-02-22T19:53:44.418Z,13.35
2018-02-22T19:56:13.794Z,12.13
2018-02-22T19:58:42.770Z,7.72
2018-02-22T20:01:14.502Z,11.88
2018-02-22T20:03:42.514Z,12.90
2018-02-22T20:06:10.567Z,9.27
2018-02-22T20:08:39.356Z,11.80
2018-02-22T20:11:08.245Z,10.75
2018-02-22T20:13:41.714Z,9.95
2018-02-22T20:16:10.714Z,10.50
2018-02-22T20:18:38.726Z,13.65
2018-02-22T20:21:06.758Z,12.43
2018-02-22T20:23:35.734Z,15.85
2018-02-22T20:26:03.729Z,9.32
2018-02-22T20:28:32.501Z,12.52
2018-02-22T20:31:05.466Z,8.52
2018-02-22T20:33:33.485Z,10.13
2018-02-22T20:36:05.046Z,9.85
2018-02-22T20:38:33.146Z,11.43
2018-02-22T20:41:02.805Z,10.70
2018-02-22T20:43:31.586Z,14.02
2018-02-22T20:46:00.534Z,11.02
2018-02-22T20:48:30.578Z,13.23
2018-02-22T20:51:04.122Z,11.98
2018-02-22T20:53:34.062Z,11.95
2018-02-22T20:56:03.098Z,14.27
2018-02-22T20:58:32.913Z,12.75
2018-02-22T21:01:02.686Z,12.32
2018-02-22T21:03:30.718Z,10.55
2018-02-22T21:05:59.654Z,12.32
2018-02-22T21:08:28.641Z,11.00
2018-02-22T21:11:02.247Z,14.10
2018-02-22T21:13:31.237Z,20.20
2018-02-22T21:16:06.490Z,12.82
2018-02-22T21:18:34.498Z,13.55
2018-02-22T21:21:02.526Z,15.38
2018-02-22T21:23:34.585Z,16.80
2018-02-22T21:26:07.354Z,13.25
2018-02-22T21:28:35.461Z,18.17
2018-02-22T21:31:08.725Z,16.98
2018-02-22T21:33:36.765Z,12.40
2018-02-22T21:36:04.778Z,14.60
2018-02-22T21:41:27.243Z,19.45
2018-02-22T21:44:05.714Z,14.00
2018-02-22T21:46:36.773Z,19.37
2018-02-22T21:49:04.798Z,12.80
2018-02-22T21:51:34.825Z,12.10
2018-02-22T21:54:02.894Z,12.25
2018-02-22T21:56:37.651Z,14.20
2018-02-22T21:59:07.577Z,16.05
2018-02-22T22:01:37.587Z,16.17
2018-02-22T22:04:05.601Z,16.08
2018-02-22T22:06:39.066Z,13.90
2018-02-22T22:09:14.577Z,18.33
2018-02-22T22:11:43.589Z,21.83
2018-02-22T22:14:11.602Z,19.52
2018-02-22T22:16:41.381Z,18.30
2018-02-22T22:19:13.061Z,17.02
2018-02-22T22:21:43.744Z,15.57
2018-02-22T22:24:11.769Z,20.42
2018-02-22T22:26:42.481Z,16.77
2018-02-22T22:29:14.313Z,15.63
2018-02-22T22:31:42.349Z,16.98
2018-02-22T22:34:11.257Z,17.17
2018-02-22T22:36:43.961Z,16.83
2018-02-22T22:39:11.977Z,14.40
2018-02-22T22:41:43.794Z,22.05
2018-02-22T22:44:17.409Z,18.23
2018-02-22T22:46:47.437Z,15.80
2018-02-22T22:49:26.804Z,10.93
2018-02-22T22:51:56.813Z,17.20
2018-02-22T22:54:24.949Z,16.40
2018-02-22T22:56:55.669Z,17.55
2018-02-22T22:59:25.721Z,20.75
2018-02-22T23:02:02.773Z,16.42
2018-02-22T23:04:30.805Z,15.70
2018-02-22T23:07:02.909Z,20.08
2018-02-22T23:09:30.925Z,18.10
2018-02-22T23:12:07.005Z,18.20
2018-02-22T23:14:37.984Z,19.95
2018-02-22T23:17:06.960Z,18.45
2018-02-22T23:19:34.977Z,15.20
2018-02-22T23:22:06.533Z,22.33
2018-02-22T23:24:36.525Z,15.10
2018-02-22T23:27:06.303Z,17.40
2018-02-22T23:29:35.317Z,17.30
2018-02-22T23:32:03.341Z,16.65
2018-02-22T23:34:33.297Z,14.15
2018-02-22T23:37:03.333Z,13.70
2018-02-22T23:39:33.141Z,15.13
2018-02-22T23:42:21.001Z,20.00
2018-02-22T23:44:52.189Z,18.10
2018-02-22T23:47:20.240Z,15.73
2018-02-22T23:49:52.488Z,23.02
2018-02-22T23:52:20.516Z,17.70
2018-02-22T23:54:55.392Z,16.20
2018-02-22T23:57:25.397Z,15.98
2018-02-22T23:59:53.677Z,16.70
